YUKO2: Yukon 2NNE(N Canadian R)

Data processed at Fri Dec 08 2017 23:42


All information presented herein is the property of the government of the United States of America and may be revised or deleted at any time without prior notice.
Dissemination of this information without the expressed written consent of the Public Affairs Office, Tulsa District U.S. Army Corps of Engineers is strictly prohibited.
These data are gathered electronically and, as presented, have not undergone any form of quality control. These data are not guaranteed to be valid or correct.
Go to home page.
Go to station list.

Upstream stations:

Downstream station:
Previous Day
Next Day
Current Day
    
SHEF ID:       YUKO2     North Canadian River near Yukon,
STATION TYPE:  

                STAGE  STAGE(2)  RIV-FLOW  WTR-TEMP   CONDUCT  BAT-LOAD
                   ft        ft       cfs         F   umho/cm      volt
              Ccp-Rev   Ccp-Rev   Ccp-Rev   Ccp-Rev   Ccp-Rev   Ccp-Rev
(US/Central)
12/06 00:00      1.66      1.63        64     44.92       982     12.77
12/06 01:00      1.65      1.63        63     44.46       982     12.71
12/06 02:00      1.65      1.63        63     43.95       982     12.65
12/06 03:00      1.65      1.63        63     43.39       984     12.65
12/06 04:00      1.64      1.63        62     42.91       984     12.65
12/06 05:00      1.64      1.63        62     42.57       986     12.60
12/06 06:00      1.64      1.63        62     42.15       987     12.54
12/06 07:00      1.64      1.63        62     41.74       989     12.54
12/06 08:00      1.64      1.63        62     41.31       990     12.54
12/06 09:00      1.61      1.63        60     41.34       991     12.89
12/06 10:00      1.59      1.63        58     42.17       986     14.35
12/06 11:00      1.58      1.63        57     43.54       987     14.53
12/06 12:00      1.58      1.63        57     45.10       981     14.47
12/06 13:00      1.58      1.63        57     46.67       979     14.35
12/06 14:00      1.59      1.63        58     48.02       976     14.30
12/06 15:00      1.59      1.63        58     48.83       974     14.35
12/06 16:00      1.58      1.63        57     48.78       968     14.41
12/06 17:00      1.59      1.63        58     47.98       970     14.24
12/06 18:00      1.61      1.63        60     46.98       968     13.59
12/06 19:00      1.61      1.63        60     46.11       967     13.18
12/06 20:00      1.62      1.63        60     45.41       969     12.89
12/06 21:00      1.63      1.63        61     44.87       969     12.83
12/06 22:00      1.64      1.63        62     44.37       967     12.77
12/06 23:00      1.64      1.63        62     43.97       968     12.77